Bishop International Airport
KFNT : now visible

Airfield :











YOU CAN JOIN US ON...

 
LOGIN :

Register | Disclaimer

   EN    FR    IT 

 









Legend :    VFR   Marginal VFR   IFR   Intensive IFR   Very Intensive IFR
Visi :
Ceiling :
>= 8 km
>= 3000ft
5 to 8 km
1000 to 3000 ft
1500m to 5 km
500 to 1000 ft
800 to 1500m
200 to 500 ft
< 800m
< 200 ft
Symbols :   Thunderstorms  Fog  Heavy snow  Heavy precipitations  Wind > 20 kt







- Airport Elevation : 782 ft
- IATA code : FNT


KFNT - Bishop International

CURRENT METAR :
  • 191453Z 22006KT 10SM OVC022 29/24 A2982 RMK AO2 SLP090 T02940244 58000 $

EXPIRED METARs :
  • 191423Z 24008KT 10SM BKN021 29/24 A2983 RMK AO2 T02940244 $
  • 191353Z 24009KT 10SM CLR 29/24 A2983 RMK AO2 SLP095 T02940244 $
  • 191253Z 25009KT 10SM SCT038 29/24 A2985 RMK AO2 SLP101 T02890244 $

TAF KFNT
Valid from the 19 at 12:00 until the 20 at 12:00 UTC


191137Z 1912/2012 22007KT P6SM BKN025 BKN080 OVC200
FM191400 22012KT P6SM VCSH SCT045 BKN080 OVC200
TEMPO 1914/1916 BKN025 OVC045
FM191700 23013G20KT P6SM BKN050
TEMPO 1919/1923 2SM TSRA OVC030CB
FM200100 20008KT P6SM SCT080 SCT250
KZOB FIR / North America



MET'MAP, your aeronautical weather chart ! - Copyright ORBIFLY December 2007 - Disclaimer

ORBIFLY MET'MAP TEAM :

Programming & Development : Alexandra Zaïnal
Concept & Development : Baudouin d'Aumeries
Co-Development & Prog : Marc-Olivier Méhu
Technical & hardware support : Manuel Goepfert

Contact : metmap@orbifly.com




SOURCES & CREDITS :

   NOAA       Earth
Advisory